Time;durP1;ratioP1;P1;durP2;ratioP2;P2;SDS_P1;SDS_P2;PMS_P1;PMS_P2;Temp;Humidity;BMP_temperature;BMP_pressure;BME280_temperature;BME280_humidity;BME280_pressure;Samples;Min_cycle;Max_cycle;Signal;HPM_P1;HPM_P2
2022/05/12 00:02:13;;;;;;;7.78;1.50;;;12.40;99.90;;;;;;5012343;28;20038;-42
2022/05/12 00:04:40;;;;;;;8.38;1.40;;;12.40;99.90;;;;;;5012344;28;20042;-43
2022/05/12 00:07:08;;;;;;;10.40;1.90;;;12.40;99.90;;;;;;5014252;28;20121;-42
2022/05/12 00:09:35;;;;;;;9.75;1.98;;;12.30;99.90;;;;;;5011410;28;20048;-43
2022/05/12 00:12:02;;;;;;;6.38;1.27;;;12.30;99.90;;;;;;5004318;28;20055;-43
2022/05/12 00:14:28;;;;;;;4.38;1.27;;;12.30;99.90;;;;;;5013305;28;20056;-42
2022/05/12 00:16:56;;;;;;;6.80;1.33;;;12.20;99.90;;;;;;5005111;28;20053;-42
2022/05/12 00:19:24;;;;;;;9.38;1.42;;;12.20;99.90;;;;;;5010017;28;20050;-42
2022/05/12 00:21:50;;;;;;;4.53;1.50;;;12.20;99.90;;;;;;5005640;28;20050;-42
2022/05/12 00:24:19;;;;;;;3.90;1.27;;;12.20;99.90;;;;;;5013020;28;20038;-42
2022/05/12 00:26:47;;;;;;;6.20;1.65;;;12.20;99.90;;;;;;5020337;28;20371;-43
2022/05/12 00:29:13;;;;;;;5.88;1.35;;;12.20;99.90;;;;;;5010167;28;20056;-42
2022/05/12 00:31:41;;;;;;;6.70;1.63;;;12.20;99.90;;;;;;5012920;28;20441;-42
2022/05/12 00:34:08;;;;;;;5.00;1.50;;;12.10;99.90;;;;;;5009140;28;20058;-43
2022/05/12 00:36:35;;;;;;;6.68;1.58;;;12.10;99.90;;;;;;5012672;28;20041;-42
2022/05/12 00:39:02;;;;;;;5.38;1.20;;;12.10;99.90;;;;;;4998983;28;20042;-42
2022/05/12 00:41:30;;;;;;;7.50;1.20;;;12.10;99.90;;;;;;5012082;28;20498;-42
2022/05/12 00:43:59;;;;;;;3.95;1.20;;;12.00;99.90;;;;;;5011759;28;20046;-42
2022/05/12 00:46:27;;;;;;;4.70;1.30;;;12.00;99.90;;;;;;5002992;28;20058;-43
2022/05/12 00:48:55;;;;;;;3.88;1.10;;;12.00;99.90;;;;;;5007998;28;20065;-42
2022/05/12 00:51:24;;;;;;;6.00;1.25;;;12.00;99.90;;;;;;5012082;28;20042;-42
2022/05/12 00:53:51;;;;;;;9.27;1.80;;;11.90;99.90;;;;;;5010010;28;20053;-43
2022/05/12 00:56:19;;;;;;;7.70;1.15;;;11.90;99.90;;;;;;5008222;28;20042;-43
2022/05/12 00:58:48;;;;;;;3.78;1.13;;;11.80;99.90;;;;;;5015974;28;20053;-42
2022/05/12 01:01:15;;;;;;;6.45;1.80;;;11.90;99.90;;;;;;5010952;28;20045;-42
2022/05/12 01:03:43;;;;;;;5.20;1.75;;;11.90;99.90;;;;;;5010467;28;20042;-42
2022/05/12 01:06:10;;;;;;;8.18;1.17;;;11.80;99.90;;;;;;5011262;28;20054;-42
2022/05/12 01:08:37;;;;;;;5.78;1.05;;;11.80;99.90;;;;;;5012469;28;20034;-42
2022/05/12 01:11:06;;;;;;;5.70;1.20;;;11.80;99.90;;;;;;5012489;28;20048;-43
2022/05/12 01:13:32;;;;;;;4.90;1.00;;;11.80;99.90;;;;;;5012626;28;20041;-43
2022/05/12 01:16:02;;;;;;;5.50;1.10;;;11.80;99.90;;;;;;5008928;28;20141;-43
2022/05/12 01:18:30;;;;;;;4.80;1.20;;;11.70;99.90;;;;;;5010759;28;20508;-42
2022/05/12 01:20:57;;;;;;;5.47;1.58;;;11.70;99.90;;;;;;5010698;28;20048;-43
2022/05/12 01:23:26;;;;;;;3.88;0.82;;;11.70;99.90;;;;;;5011438;28;20092;-42
2022/05/12 01:25:56;;;;;;;3.15;1.00;;;11.60;99.90;;;;;;5006518;28;20056;-42
2022/05/12 01:28:23;;;;;;;3.42;0.80;;;11.60;99.90;;;;;;5012440;28;20044;-42
2022/05/12 01:30:49;;;;;;;3.63;1.00;;;11.60;99.90;;;;;;5012724;28;20427;-42
2022/05/12 01:33:16;;;;;;;3.35;0.82;;;11.50;99.90;;;;;;5010972;28;20053;-41
2022/05/12 01:35:43;;;;;;;3.15;1.20;;;11.50;99.90;;;;;;5012844;28;20042;-41
2022/05/12 01:38:09;;;;;;;7.25;1.30;;;11.50;99.90;;;;;;5008256;28;20050;-42
2022/05/12 01:40:38;;;;;;;8.15;1.10;;;11.50;99.90;;;;;;5011666;28;20489;-42
2022/05/12 01:43:05;;;;;;;2.95;0.85;;;11.50;99.90;;;;;;5003887;28;20137;-42
2022/05/12 01:45:32;;;;;;;3.65;1.08;;;11.40;99.90;;;;;;5010813;28;20485;-42
2022/05/12 01:47:59;;;;;;;4.13;1.10;;;11.40;99.90;;;;;;5010012;28;20085;-42
2022/05/12 01:50:25;;;;;;;4.63;1.45;;;11.40;99.90;;;;;;5008245;28;20125;-42
2022/05/12 01:52:52;;;;;;;4.70;0.90;;;11.40;99.90;;;;;;5009638;28;20401;-42
2022/05/12 01:55:20;;;;;;;4.72;0.98;;;11.40;99.90;;;;;;5007020;28;20054;-42
2022/05/12 01:57:48;;;;;;;6.10;1.15;;;11.30;99.90;;;;;;5012153;28;20393;-42
2022/05/12 02:00:17;;;;;;;2.33;1.02;;;11.30;99.90;;;;;;5009705;28;20064;-43
2022/05/12 02:02:43;;;;;;;2.13;0.95;;;11.30;99.90;;;;;;5013543;28;20037;-42
2022/05/12 02:05:11;;;;;;;8.57;1.20;;;11.30;99.90;;;;;;5003580;28;20060;-41
2022/05/12 02:07:38;;;;;;;2.75;1.38;;;11.30;99.90;;;;;;5011898;28;20038;-42
2022/05/12 02:10:06;;;;;;;3.58;1.42;;;11.20;99.90;;;;;;5009805;28;20041;-42
2022/05/12 02:12:33;;;;;;;8.88;1.75;;;11.20;99.90;;;;;;5011104;28;20120;-41
2022/05/12 02:15:01;;;;;;;7.20;1.77;;;11.20;99.90;;;;;;5000423;28;20490;-42
2022/05/12 02:17:27;;;;;;;7.25;1.55;;;11.10;99.90;;;;;;5006017;28;20060;-42
2022/05/12 02:19:54;;;;;;;6.53;1.70;;;11.10;99.90;;;;;;5009872;28;20078;-42
2022/05/12 02:22:21;;;;;;;4.80;1.20;;;11.00;99.90;;;;;;5011353;28;20048;-42
2022/05/12 02:24:47;;;;;;;9.25;1.65;;;11.00;99.90;;;;;;5007131;28;20494;-42
2022/05/12 02:27:14;;;;;;;4.63;1.27;;;10.90;99.90;;;;;;5018499;28;20045;-43
2022/05/12 02:29:41;;;;;;;6.18;1.42;;;10.90;99.90;;;;;;5008592;28;20394;-42
2022/05/12 02:32:09;;;;;;;7.93;1.58;;;10.90;99.90;;;;;;5005684;28;20053;-41
2022/05/12 02:34:36;;;;;;;5.70;1.50;;;10.90;99.90;;;;;;5013980;28;20055;-41
2022/05/12 02:37:03;;;;;;;5.53;1.42;;;10.90;99.90;;;;;;5005862;28;20481;-41
2022/05/12 02:39:31;;;;;;;5.32;1.60;;;10.80;99.90;;;;;;5011047;28;20500;-42
2022/05/12 02:41:57;;;;;;;6.68;1.88;;;10.80;99.90;;;;;;5011955;28;20034;-42
2022/05/12 02:44:24;;;;;;;5.18;1.50;;;10.80;99.90;;;;;;5003337;28;20068;-42
2022/05/12 02:46:51;;;;;;;4.15;1.20;;;10.80;99.90;;;;;;5010687;28;20458;-42
2022/05/12 02:49:19;;;;;;;4.70;1.52;;;10.80;99.90;;;;;;5006229;28;20053;-41
2022/05/12 02:51:47;;;;;;;6.45;1.55;;;10.80;99.90;;;;;;5011823;28;20045;-42
2022/05/12 02:54:14;;;;;;;6.85;1.42;;;10.70;99.90;;;;;;5009963;28;20481;-42
2022/05/12 02:56:41;;;;;;;8.50;1.85;;;10.70;99.90;;;;;;5009756;28;20042;-42
2022/05/12 02:59:07;;;;;;;4.20;1.25;;;10.70;99.90;;;;;;5009323;28;20044;-42
2022/05/12 03:01:34;;;;;;;4.28;1.42;;;10.70;99.90;;;;;;5005481;28;20049;-42
2022/05/12 03:04:01;;;;;;;9.43;2.20;;;10.70;99.90;;;;;;5010707;28;20049;-42
2022/05/12 03:06:29;;;;;;;4.97;1.30;;;10.70;99.90;;;;;;5015520;28;20041;-42
2022/05/12 03:08:56;;;;;;;7.25;2.05;;;10.70;99.90;;;;;;5010622;28;20046;-42
2022/05/12 03:11:22;;;;;;;4.45;1.67;;;10.70;99.90;;;;;;5018802;28;20152;-42
2022/05/12 03:13:50;;;;;;;5.00;1.40;;;10.70;99.90;;;;;;5010715;28;20049;-43
2022/05/12 03:16:18;;;;;;;6.30;1.45;;;10.60;99.90;;;;;;5014445;28;20045;-42
2022/05/12 03:18:46;;;;;;;4.45;1.60;;;10.60;99.90;;;;;;5012541;28;20140;-42
2022/05/12 03:21:13;;;;;;;4.15;1.65;;;10.60;99.90;;;;;;5012342;28;20044;-41
2022/05/12 03:23:41;;;;;;;3.75;1.50;;;10.60;99.90;;;;;;5014321;28;20466;-43
2022/05/12 03:26:08;;;;;;;7.10;1.42;;;10.60;99.90;;;;;;5013941;28;20058;-42
2022/05/12 03:28:35;;;;;;;5.50;1.98;;;10.60;99.90;;;;;;5012468;28;20058;-41
2022/05/12 03:31:02;;;;;;;5.53;1.52;;;10.60;99.90;;;;;;5013533;28;20393;-42
2022/05/12 03:33:29;;;;;;;4.15;1.92;;;10.60;99.90;;;;;;5008179;28;20467;-42
2022/05/12 03:35:56;;;;;;;7.03;1.88;;;10.60;99.90;;;;;;5012844;28;20050;-42
2022/05/12 03:38:23;;;;;;;6.65;1.65;;;10.60;99.90;;;;;;5008876;28;20050;-43
2022/05/12 03:40:51;;;;;;;7.57;1.88;;;10.50;99.90;;;;;;5011322;28;20058;-42
2022/05/12 03:45:59;;;;;;;5.55;2.13;;;10.50;99.90;;;;;;5012856;28;20073;-43
2022/05/12 03:48:25;;;;;;;6.60;1.75;;;10.50;99.90;;;;;;5005289;28;20845;-42
2022/05/12 03:50:52;;;;;;;12.60;2.65;;;10.40;99.90;;;;;;5013197;28;20050;-42
2022/05/12 03:53:19;;;;;;;7.13;1.98;;;10.40;99.90;;;;;;5014977;28;20048;-42
2022/05/12 03:55:45;;;;;;;7.70;2.25;;;10.40;99.90;;;;;;5014167;28;20057;-42
2022/05/12 03:58:13;;;;;;;7.38;2.13;;;10.40;99.90;;;;;;5013738;28;20389;-41
2022/05/12 04:00:40;;;;;;;10.45;2.78;;;10.40;99.90;;;;;;5010995;28;20056;-42
2022/05/12 04:03:07;;;;;;;7.28;2.35;;;10.40;99.90;;;;;;5014061;28;20393;-42
2022/05/12 04:05:33;;;;;;;7.78;1.92;;;10.30;99.90;;;;;;5013331;28;20050;-42
2022/05/12 04:08:00;;;;;;;10.77;2.72;;;10.30;99.90;;;;;;5014486;28;20050;-42
2022/05/12 04:10:27;;;;;;;7.20;2.22;;;10.30;99.90;;;;;;5006385;28;20046;-42
2022/05/12 04:12:54;;;;;;;9.27;2.97;;;10.30;99.90;;;;;;5003198;28;20054;-42
2022/05/12 04:15:22;;;;;;;11.45;3.28;;;10.30;99.90;;;;;;5008748;28;20049;-42
2022/05/12 04:17:55;;;;;;;8.43;3.00;;;10.30;99.90;;;;;;5008987;28;20057;-42
2022/05/12 04:20:22;;;;;;;10.18;2.20;;;10.30;99.90;;;;;;5012772;28;20056;-42
2022/05/12 04:22:49;;;;;;;11.82;2.97;;;10.30;99.90;;;;;;5010341;28;20048;-42
2022/05/12 04:25:16;;;;;;;7.22;2.55;;;10.30;99.90;;;;;;5006517;28;20393;-42
2022/05/12 04:27:43;;;;;;;9.30;2.70;;;10.30;99.90;;;;;;5010844;28;20124;-42
2022/05/12 04:30:11;;;;;;;10.13;3.08;;;10.40;99.90;;;;;;5011754;28;20049;-42
2022/05/12 04:32:39;;;;;;;11.27;2.72;;;10.30;99.90;;;;;;5010872;28;20565;-42
2022/05/12 04:35:12;;;;;;;17.40;4.15;;;10.40;99.90;;;;;;5014973;28;20252;-42
2022/05/12 04:37:39;;;;;;;11.65;3.28;;;10.30;99.90;;;;;;5008411;28;20152;-42
2022/05/12 04:40:08;;;;;;;10.73;3.47;;;10.40;99.90;;;;;;5009417;28;20069;-42
2022/05/12 04:42:35;;;;;;;12.82;2.58;;;10.40;99.90;;;;;;5011876;28;21130;-42
2022/05/12 04:45:02;;;;;;;10.13;3.17;;;10.40;99.90;;;;;;5010969;28;20050;-42
2022/05/12 04:47:28;;;;;;;7.45;3.22;;;10.40;99.90;;;;;;5011878;28;20050;-42
2022/05/12 04:49:58;;;;;;;10.48;3.53;;;10.40;99.90;;;;;;5012796;28;20045;-42
2022/05/12 04:52:25;;;;;;;13.20;4.18;;;10.40;99.90;;;;;;5010349;28;20116;-42
2022/05/12 04:54:54;;;;;;;11.20;3.60;;;10.50;99.90;;;;;;5009101;28;20049;-42
2022/05/12 04:57:20;;;;;;;10.25;3.60;;;10.50;99.90;;;;;;5011130;28;20041;-41
2022/05/12 04:59:47;;;;;;;9.55;2.95;;;10.50;99.90;;;;;;5010972;28;20054;-42
2022/05/12 05:02:14;;;;;;;11.80;3.97;;;10.50;99.90;;;;;;5008234;28;20050;-41
2022/05/12 05:04:40;;;;;;;10.75;3.97;;;10.50;99.90;;;;;;5011634;28;20076;-41
2022/05/12 05:07:10;;;;;;;10.93;4.00;;;10.50;99.90;;;;;;5007603;28;20526;-42
2022/05/12 05:09:37;;;;;;;14.93;4.53;;;10.60;99.90;;;;;;5010384;28;20046;-42
2022/05/12 05:12:04;;;;;;;8.98;3.78;;;10.60;99.90;;;;;;5013083;28;20113;-42
2022/05/12 05:14:31;;;;;;;12.48;4.65;;;10.70;99.90;;;;;;5013670;28;20512;-42
2022/05/12 05:16:59;;;;;;;14.15;5.20;;;10.70;99.90;;;;;;5009796;28;20060;-42
2022/05/12 05:19:25;;;;;;;10.02;4.88;;;10.70;99.90;;;;;;5011112;28;20124;-42
2022/05/12 05:21:52;;;;;;;15.18;5.53;;;10.80;99.90;;;;;;4999249;28;20089;-42
2022/05/12 05:24:20;;;;;;;16.50;5.72;;;10.80;99.90;;;;;;5011519;28;20398;-42
2022/05/12 05:26:47;;;;;;;14.35;5.60;;;10.90;99.90;;;;;;5011525;28;20072;-42
2022/05/12 05:29:13;;;;;;;14.10;5.88;;;10.90;99.90;;;;;;5003364;28;20052;-42
2022/05/12 05:31:40;;;;;;;13.95;6.25;;;11.00;99.90;;;;;;5012297;28;20141;-42
2022/05/12 05:34:09;;;;;;;17.70;6.82;;;11.00;99.90;;;;;;5011816;28;20492;-42
2022/05/12 05:36:38;;;;;;;19.15;8.13;;;11.10;99.90;;;;;;5013211;28;20049;-42
2022/05/12 05:39:06;;;;;;;18.27;7.68;;;11.20;99.90;;;;;;5012865;28;20049;-42
2022/05/12 05:41:35;;;;;;;19.35;7.35;;;11.30;99.90;;;;;;5013130;28;20096;-42
2022/05/12 05:44:02;;;;;;;17.60;7.93;;;11.50;99.90;;;;;;5012584;28;20050;-42
2022/05/12 05:46:29;;;;;;;17.80;7.95;;;11.60;99.90;;;;;;5006767;28;20073;-42
2022/05/12 05:48:56;;;;;;;19.20;8.02;;;11.70;99.90;;;;;;5000983;28;20479;-41
2022/05/12 05:54:07;;;;;;;21.63;8.13;;;11.90;99.90;;;;;;5012499;28;20429;-42
2022/05/12 05:56:35;;;;;;;19.70;8.30;;;11.90;99.90;;;;;;5011762;28;20068;-42
2022/05/12 05:59:01;;;;;;;15.50;8.27;;;12.00;99.90;;;;;;5011278;28;20054;-42
2022/05/12 06:01:28;;;;;;;14.20;7.97;;;12.10;99.90;;;;;;5005015;28;20038;-41
2022/05/12 06:03:56;;;;;;;23.15;8.35;;;12.30;99.90;;;;;;5009002;28;20053;-42
2022/05/12 06:06:23;;;;;;;17.45;8.75;;;12.30;99.90;;;;;;5012388;28;20478;-41
2022/05/12 06:08:50;;;;;;;18.85;8.05;;;12.50;99.90;;;;;;5012399;28;20402;-41
2022/05/12 06:11:17;;;;;;;20.85;8.10;;;12.60;99.90;;;;;;5011217;28;20049;-42
2022/05/12 06:13:47;;;;;;;16.70;7.43;;;12.70;99.90;;;;;;5012018;28;20475;-42
2022/05/12 06:16:14;;;;;;;19.75;8.43;;;12.80;99.90;;;;;;5012468;28;20450;-41
2022/05/12 06:18:41;;;;;;;17.20;7.40;;;12.90;99.90;;;;;;5012439;28;20050;-42
2022/05/12 06:21:09;;;;;;;17.90;7.55;;;13.00;99.90;;;;;;5005276;28;20074;-43
2022/05/12 06:23:37;;;;;;;14.43;7.50;;;13.10;99.90;;;;;;5009897;28;20125;-42
2022/05/12 06:26:06;;;;;;;18.90;7.80;;;13.30;99.90;;;;;;5012302;28;20037;-43
2022/05/12 06:28:32;;;;;;;17.05;7.03;;;13.40;99.90;;;;;;5011175;28;20050;-43
2022/05/12 06:31:00;;;;;;;16.17;6.90;;;13.60;99.90;;;;;;4999707;28;20052;-43
2022/05/12 06:33:28;;;;;;;26.60;6.95;;;13.70;99.90;;;;;;5006717;28;20046;-43
2022/05/12 06:35:58;;;;;;;17.90;6.25;;;13.80;99.90;;;;;;5012166;28;20045;-42
2022/05/12 06:38:25;;;;;;;13.98;5.47;;;13.90;99.90;;;;;;5008647;28;20038;-42
2022/05/12 06:40:51;;;;;;;21.95;7.25;;;14.00;99.90;;;;;;5013559;28;20064;-42
2022/05/12 06:43:18;;;;;;;17.48;6.05;;;14.10;99.90;;;;;;5006935;28;20049;-42
2022/05/12 06:45:45;;;;;;;20.83;5.88;;;14.20;99.90;;;;;;5015335;28;20042;-42
2022/05/12 06:48:13;;;;;;;18.05;6.00;;;14.40;99.90;;;;;;5007932;28;20514;-42
2022/05/12 06:50:40;;;;;;;15.95;5.10;;;14.50;99.90;;;;;;5016351;28;20048;-43
2022/05/12 06:53:07;;;;;;;14.10;4.95;;;14.70;99.90;;;;;;5015968;28;20478;-42
2022/05/12 06:55:33;;;;;;;12.82;4.40;;;14.70;99.90;;;;;;5011883;28;20053;-42
2022/05/12 06:58:00;;;;;;;13.30;4.97;;;14.80;99.90;;;;;;5010058;28;20053;-42
2022/05/12 07:00:27;;;;;;;12.27;4.78;;;15.00;99.90;;;;;;5014828;28;20045;-42
2022/05/12 07:02:53;;;;;;;11.10;4.65;;;15.00;99.90;;;;;;5014946;28;20048;-42
2022/05/12 07:05:25;;;;;;;11.65;5.03;;;15.20;99.90;;;;;;5013812;28;20068;-43
2022/05/12 07:07:52;;;;;;;13.18;4.47;;;15.30;99.90;;;;;;5015908;28;20052;-43
2022/05/12 07:10:20;;;;;;;14.60;4.50;;;15.50;99.90;;;;;;5015534;28;20457;-42
2022/05/12 07:12:47;;;;;;;12.95;4.30;;;15.60;99.90;;;;;;5014842;28;20053;-43
2022/05/12 07:15:13;;;;;;;10.32;3.50;;;15.70;99.90;;;;;;5015436;28;20420;-42
2022/05/12 07:17:43;;;;;;;11.75;3.80;;;15.90;99.90;;;;;;5016088;28;20042;-42
2022/05/12 07:28:26;;;;;;;10.82;2.97;;;16.50;99.70;;;;;;5015343;28;20046;-42
2022/05/12 07:31:02;;;;;;;9.68;2.55;;;16.50;99.20;;;;;;5015616;28;20045;-42
2022/05/12 07:33:28;;;;;;;9.95;2.55;;;16.60;98.70;;;;;;5013666;28;20458;-43
2022/05/12 07:35:55;;;;;;;10.48;2.60;;;16.70;98.30;;;;;;5015512;28;20052;-43
2022/05/12 07:38:23;;;;;;;9.63;2.45;;;16.80;97.80;;;;;;5015510;28;20126;-43
2022/05/12 07:40:50;;;;;;;9.48;2.33;;;16.90;97.50;;;;;;5015161;28;21156;-43
2022/05/12 07:43:16;;;;;;;8.63;2.70;;;17.00;97.00;;;;;;5003557;28;20133;-43
2022/05/12 07:45:43;;;;;;;9.40;2.67;;;17.20;96.90;;;;;;5006391;28;20046;-42
2022/05/12 07:48:11;;;;;;;11.43;2.60;;;17.30;96.70;;;;;;5014549;28;20075;-42
2022/05/12 07:50:39;;;;;;;12.18;2.85;;;17.40;96.50;;;;;;5015172;28;20046;-42
2022/05/12 07:53:05;;;;;;;12.55;2.58;;;17.50;96.20;;;;;;5013444;28;20041;-42
2022/05/12 07:55:33;;;;;;;8.82;2.30;;;17.60;95.90;;;;;;5014807;28;20052;-42
2022/05/12 07:58:00;;;;;;;8.57;2.38;;;17.80;95.70;;;;;;5013030;28;20057;-42
2022/05/12 08:00:28;;;;;;;9.00;2.15;;;17.90;95.30;;;;;;5015028;28;20048;-42
2022/05/12 08:02:56;;;;;;;11.13;2.47;;;18.10;94.50;;;;;;5014579;28;20050;-43
2022/05/12 08:05:22;;;;;;;11.30;2.40;;;18.20;94.30;;;;;;5015012;28;20046;-43
2022/05/12 08:07:49;;;;;;;9.98;2.25;;;18.30;94.10;;;;;;5014886;28;20383;-43
2022/05/12 08:10:16;;;;;;;6.65;2.30;;;18.50;93.80;;;;;;5014917;28;20050;-43
2022/05/12 08:12:44;;;;;;;8.57;2.30;;;18.60;93.50;;;;;;5014899;28;20065;-43
2022/05/12 08:15:11;;;;;;;10.77;3.22;;;18.80;93.50;;;;;;5014420;28;20048;-43
2022/05/12 08:17:37;;;;;;;11.65;2.30;;;19.00;93.30;;;;;;5010617;28;20049;-44
2022/05/12 08:20:06;;;;;;;7.68;2.03;;;19.20;92.90;;;;;;5011707;28;20393;-43
2022/05/12 08:22:32;;;;;;;7.53;2.60;;;19.20;92.00;;;;;;5014628;28;20046;-44
2022/05/12 08:24:59;;;;;;;8.77;2.05;;;19.10;91.50;;;;;;5014667;28;20411;-43
2022/05/12 08:27:26;;;;;;;8.90;2.17;;;19.00;91.70;;;;;;5013796;28;20054;-42
2022/05/12 08:29:54;;;;;;;8.18;1.92;;;19.00;91.70;;;;;;5014474;28;20296;-42
2022/05/12 08:32:21;;;;;;;8.60;2.08;;;19.00;91.50;;;;;;5014215;28;20120;-43
2022/05/12 08:34:48;;;;;;;11.93;2.30;;;19.10;91.30;;;;;;5014516;28;20042;-43
2022/05/12 08:37:15;;;;;;;13.57;2.58;;;19.00;91.20;;;;;;5014164;28;20046;-42
2022/05/12 08:39:44;;;;;;;7.45;2.00;;;18.90;91.00;;;;;;5014630;28;20046;-42
2022/05/12 08:42:14;;;;;;;6.95;2.08;;;18.80;91.00;;;;;;5014249;28;20440;-42
2022/05/12 08:44:41;;;;;;;6.15;1.73;;;18.80;90.60;;;;;;5007924;28;20553;-42
2022/05/12 08:47:11;;;;;;;10.18;1.65;;;18.80;90.80;;;;;;5014080;28;20054;-43
2022/05/12 08:49:40;;;;;;;7.13;2.08;;;18.80;90.80;;;;;;5007349;28;20038;-42
2022/05/12 08:52:10;;;;;;;7.60;2.17;;;19.10;90.20;;;;;;5014231;28;20060;-42
2022/05/12 08:54:37;;;;;;;9.33;2.23;;;19.30;90.10;;;;;;5009445;28;20046;-42
2022/05/12 08:57:05;;;;;;;8.20;2.22;;;19.50;89.70;;;;;;5013818;28;20052;-42
2022/05/12 08:59:33;;;;;;;11.38;2.47;;;19.70;88.30;;;;;;5013525;28;20048;-42
2022/05/12 09:02:05;;;;;;;9.95;2.03;;;19.80;87.70;;;;;;5013897;28;20080;-42
2022/05/12 09:04:52;;;;;;;9.40;2.47;;;19.80;86.80;;;;;;5013012;28;20100;-42
2022/05/12 09:07:22;;;;;;;7.28;2.42;;;19.80;85.10;;;;;;5008671;28;20052;-42
2022/05/12 09:09:51;;;;;;;6.93;2.25;;;19.90;86.50;;;;;;5012592;28;20046;-43
2022/05/12 09:12:24;;;;;;;8.77;1.95;;;19.90;85.20;;;;;;5013928;28;20060;-42
2022/05/12 09:14:52;;;;;;;8.00;1.70;;;19.80;84.10;;;;;;5013525;28;20128;-43
2022/05/12 09:17:20;;;;;;;5.78;2.35;;;19.90;83.80;;;;;;5010495;28;20470;-42
2022/05/12 09:19:48;;;;;;;8.95;1.98;;;20.00;83.00;;;;;;5009903;28;20052;-42
2022/05/12 09:22:14;;;;;;;9.57;2.03;;;20.00;81.80;;;;;;5012475;28;20378;-42
2022/05/12 09:24:41;;;;;;;5.03;1.95;;;20.00;82.30;;;;;;5005500;28;20049;-42
2022/05/12 09:27:08;;;;;;;9.85;2.28;;;20.20;82.10;;;;;;5012925;28;20053;-42
2022/05/12 09:29:44;;;;;;;8.10;1.95;;;20.30;80.40;;;;;;5012985;28;20483;-42
2022/05/12 09:32:22;;;;;;;6.85;1.58;;;20.10;79.30;;;;;;5012171;28;20046;-42
2022/05/12 09:35:05;;;;;;;10.13;1.70;;;19.90;79.20;;;;;;5009604;28;20088;-43
2022/05/12 09:37:32;;;;;;;7.57;1.83;;;19.80;79.80;;;;;;5006913;28;20053;-43
2022/05/12 09:40:02;;;;;;;7.03;1.95;;;19.90;80.70;;;;;;5013049;28;20046;-42
2022/05/12 09:42:40;;;;;;;9.23;2.15;;;20.00;80.00;;;;;;5005472;28;20381;-43
2022/05/12 09:45:08;;;;;;;9.52;2.03;;;20.20;79.00;;;;;;5011388;28;20120;-43
2022/05/12 09:47:35;;;;;;;5.72;1.80;;;20.40;79.40;;;;;;5009829;28;20515;-43
2022/05/12 09:50:16;;;;;;;7.55;1.70;;;20.60;76.90;;;;;;5009348;28;20046;-42
2022/05/12 09:52:43;;;;;;;6.72;1.80;;;20.70;76.70;;;;;;5007063;28;20048;-43
2022/05/12 09:55:16;;;;;;;5.65;1.50;;;20.80;76.10;;;;;;4998072;28;20054;-42
2022/05/12 09:57:47;;;;;;;7.25;1.60;;;20.80;73.90;;;;;;5012330;28;20045;-42
2022/05/12 10:00:25;;;;;;;5.22;1.40;;;20.80;73.30;;;;;;5012513;28;20045;-42
2022/05/12 10:08:27;;;;;;;8.65;1.73;;;21.00;72.80;;;;;;5012656;28;20045;-43
2022/05/12 10:10:56;;;;;;;5.18;1.67;;;21.20;71.60;;;;;;5006293;28;20060;-42
2022/05/12 10:13:25;;;;;;;6.75;1.80;;;21.30;70.00;;;;;;5010475;28;20705;-42
2022/05/12 10:15:53;;;;;;;8.20;1.48;;;21.40;71.00;;;;;;5011656;28;20054;-42
2022/05/12 10:18:27;;;;;;;4.75;1.23;;;21.60;69.40;;;;;;5012510;28;20057;-42
2022/05/12 10:20:57;;;;;;;8.50;1.83;;;21.70;68.70;;;;;;5005601;28;20077;-43
2022/05/12 10:23:26;;;;;;;7.13;1.83;;;21.90;68.60;;;;;;5012284;28;20101;-43
2022/05/12 10:25:59;;;;;;;10.30;1.70;;;22.10;68.60;;;;;;5004988;28;20121;-43
2022/05/12 10:28:34;;;;;;;6.90;1.45;;;22.20;68.00;;;;;;5012857;28;20100;-42
2022/05/12 10:31:05;;;;;;;11.93;2.03;;;22.40;67.60;;;;;;5000358;28;20052;-43
2022/05/12 10:33:38;;;;;;;7.28;2.05;;;22.40;66.80;;;;;;5008792;28;20052;-42
2022/05/12 10:36:15;;;;;;;7.85;1.67;;;22.40;66.30;;;;;;5012399;28;20084;-42
2022/05/12 10:38:45;;;;;;;5.80;1.73;;;22.40;65.80;;;;;;5012449;28;20037;-42
2022/05/12 10:41:17;;;;;;;4.07;1.55;;;22.30;65.20;;;;;;5006217;28;20038;-42
2022/05/12 10:43:52;;;;;;;9.10;1.80;;;22.10;64.50;;;;;;5010180;28;20097;-43
2022/05/12 10:46:21;;;;;;;4.22;1.27;;;21.90;65.00;;;;;;5012321;28;20397;-43
2022/05/12 10:48:50;;;;;;;5.97;1.70;;;21.90;64.70;;;;;;5006184;28;20054;-43
2022/05/12 10:51:26;;;;;;;5.85;1.70;;;21.90;64.30;;;;;;5012543;28;20077;-42
2022/05/12 10:54:00;;;;;;;5.28;1.30;;;21.90;64.50;;;;;;5012029;28;20046;-42
2022/05/12 10:56:32;;;;;;;8.57;1.55;;;22.00;63.70;;;;;;5012278;28;20037;-43
2022/05/12 10:59:14;;;;;;;5.60;1.55;;;21.90;62.30;;;;;;5011846;28;20041;-42
2022/05/12 11:01:43;;;;;;;8.70;1.92;;;21.80;63.10;;;;;;5012452;28;20061;-42
2022/05/12 11:04:12;;;;;;;6.75;1.58;;;21.80;63.10;;;;;;5011948;28;20135;-42
2022/05/12 11:06:41;;;;;;;8.10;2.00;;;21.80;63.30;;;;;;5012233;28;20042;-43
2022/05/12 11:09:10;;;;;;;4.82;1.40;;;21.60;62.90;;;;;;5005070;28;20049;-42
2022/05/12 11:11:38;;;;;;;11.27;1.77;;;21.60;64.30;;;;;;5011931;28;20128;-43
2022/05/12 11:14:08;;;;;;;7.57;1.70;;;21.50;64.00;;;;;;5011675;28;20512;-42
2022/05/12 11:16:38;;;;;;;5.63;1.45;;;21.60;64.70;;;;;;5011145;28;20041;-42
2022/05/12 11:19:07;;;;;;;6.65;1.30;;;21.80;65.20;;;;;;5003683;28;20053;-42
2022/05/12 11:21:35;;;;;;;6.18;1.48;;;22.00;62.60;;;;;;5004563;28;20046;-42
2022/05/12 11:24:12;;;;;;;6.60;1.83;;;22.10;61.00;;;;;;5012015;28;20149;-43
2022/05/12 11:26:47;;;;;;;6.78;1.67;;;22.30;60.10;;;;;;5006380;28;20045;-43
2022/05/12 11:29:44;;;;;;;6.45;1.45;;;22.50;60.60;;;;;;5008969;28;20042;-42
2022/05/12 11:32:17;;;;;;;4.78;1.60;;;22.50;58.80;;;;;;5011600;28;20053;-42
2022/05/12 11:34:45;;;;;;;7.75;1.50;;;22.30;60.10;;;;;;5010689;28;20040;-42
2022/05/12 11:37:29;;;;;;;4.10;1.23;;;22.10;61.10;;;;;;5014382;28;20050;-42
2022/05/12 11:39:58;;;;;;;8.02;1.63;;;22.00;61.20;;;;;;5008703;28;20128;-42
2022/05/12 11:42:25;;;;;;;4.55;1.10;;;22.10;61.00;;;;;;5015205;28;20057;-42
2022/05/12 11:45:01;;;;;;;4.72;1.30;;;22.30;60.70;;;;;;4998735;28;20057;-42
2022/05/12 11:47:43;;;;;;;6.85;1.60;;;22.50;59.40;;;;;;4995052;28;20054;-42
2022/05/12 11:50:32;;;;;;;7.47;1.40;;;22.40;60.50;;;;;;4976119;28;20057;-42
2022/05/12 11:53:03;;;;;;;8.18;1.50;;;22.40;60.20;;;;;;4960937;28;20054;-42
2022/05/12 11:55:33;;;;;;;6.07;1.35;;;22.60;59.40;;;;;;4994277;28;20045;-42
2022/05/12 11:58:03;;;;;;;3.80;1.35;;;22.70;58.50;;;;;;4976720;28;20058;-42
2022/05/12 12:01:04;;;;;;;8.90;1.98;;;22.80;59.10;;;;;;4977713;28;20053;-42
2022/05/12 12:03:46;;;;;;;3.20;1.02;;;22.80;57.90;;;;;;4926756;29;20130;-42
2022/05/12 12:06:13;;;;;;;5.63;1.20;;;22.60;57.70;;;;;;4932649;29;20130;-42
2022/05/12 12:08:42;;;;;;;3.65;1.20;;;22.40;58.30;;;;;;4965083;28;20053;-42
2022/05/12 12:11:27;;;;;;;3.25;1.25;;;22.50;58.80;;;;;;4994725;28;20046;-42
2022/05/12 12:13:55;;;;;;;7.07;1.60;;;22.60;58.70;;;;;;4991501;28;20093;-42
2022/05/12 12:16:22;;;;;;;5.13;1.20;;;22.60;58.20;;;;;;4982928;28;20054;-42
2022/05/12 12:18:58;;;;;;;4.25;1.20;;;22.50;58.40;;;;;;4994254;28;20046;-42
2022/05/12 12:21:49;;;;;;;7.30;1.52;;;22.40;57.00;;;;;;4987425;28;20049;-42
2022/05/12 12:24:55;;;;;;;7.00;1.80;;;22.30;55.90;;;;;;4993541;28;20854;-42
2022/05/12 12:28:00;;;;;;;5.85;1.58;;;22.10;57.30;;;;;;4990776;28;20485;-42
2022/05/12 12:30:39;;;;;;;6.57;1.80;;;22.00;58.20;;;;;;4977565;28;20060;-42
2022/05/12 12:33:51;;;;;;;5.32;1.40;;;21.90;57.70;;;;;;4993600;28;20145;-43
2022/05/12 12:37:06;;;;;;;4.15;1.10;;;21.70;57.80;;;;;;4946648;28;20483;-42
2022/05/12 12:39:47;;;;;;;7.35;1.20;;;21.70;56.90;;;;;;4991028;28;20057;-42
2022/05/12 12:42:28;;;;;;;5.37;1.23;;;21.80;58.50;;;;;;4976248;28;20173;-42
2022/05/12 12:44:57;;;;;;;3.63;1.13;;;21.70;57.20;;;;;;5010592;28;20626;-42
2022/05/12 12:47:29;;;;;;;5.75;1.10;;;21.40;57.30;;;;;;5013994;28;20046;-42
2022/05/12 12:49:57;;;;;;;5.32;1.45;;;21.30;57.50;;;;;;5012472;28;20046;-42
2022/05/12 12:52:24;;;;;;;5.63;1.25;;;21.20;58.10;;;;;;5008397;28;20488;-42
2022/05/12 12:57:48;;;;;;;6.60;1.55;;;21.50;57.20;;;;;;5012781;28;20042;-42
2022/05/12 13:00:23;;;;;;;5.35;1.40;;;21.40;57.10;;;;;;5012874;28;20232;-42
2022/05/12 13:02:56;;;;;;;9.00;1.50;;;21.30;57.20;;;;;;5009095;28;20597;-42
2022/05/12 13:05:24;;;;;;;5.05;1.10;;;21.40;57.20;;;;;;5003933;28;20038;-42
2022/05/12 13:07:54;;;;;;;5.57;1.50;;;21.40;57.30;;;;;;5012359;28;20141;-42
2022/05/12 13:10:21;;;;;;;6.45;1.63;;;21.50;57.10;;;;;;5009003;28;20052;-42
2022/05/12 13:12:52;;;;;;;5.30;1.20;;;21.50;56.70;;;;;;5009076;28;20049;-43
2022/05/12 13:15:20;;;;;;;;;;;21.40;56.40;;;;;;5012448;28;20048;-43
2022/05/12 13:17:50;;;;;;;3.55;0.93;;;21.50;57.30;;;;;;5013032;28;19925;-43